createdAt,value
2022-12-25T00:01:37.202Z,12.61
2022-12-25T00:04:58.994Z,12.45
2022-12-25T00:08:23.998Z,12.54
2022-12-25T00:11:45.907Z,12.46
2022-12-25T00:15:13.705Z,12.57
2022-12-25T00:18:52.737Z,12.56
2022-12-25T00:22:14.692Z,12.56
2022-12-25T00:25:40.570Z,12.63
2022-12-25T00:29:13.811Z,12.53
2022-12-25T00:32:37.456Z,12.65
2022-12-25T00:36:01.323Z,12.49
2022-12-25T00:39:23.276Z,12.53
2022-12-25T00:42:51.315Z,12.65
2022-12-25T00:46:24.458Z,12.59
2022-12-25T00:49:52.532Z,12.73
2022-12-25T00:53:20.711Z,12.73
2022-12-25T00:56:42.585Z,12.85
2022-12-25T01:00:05.239Z,12.75
2022-12-25T01:03:34.999Z,12.73
2022-12-25T01:06:56.799Z,12.67
2022-12-25T01:10:24.364Z,12.67
2022-12-25T01:13:47.254Z,12.57
2022-12-25T01:17:09.088Z,12.54
2022-12-25T01:20:30.924Z,12.59
2022-12-25T01:24:05.172Z,12.46
2022-12-25T01:27:41.768Z,12.69
2022-12-25T01:31:05.331Z,12.67
2022-12-25T01:34:33.577Z,12.70
2022-12-25T01:37:56.433Z,12.74
2022-12-25T01:41:24.725Z,12.62
2022-12-25T01:44:46.555Z,12.66
2022-12-25T01:48:14.521Z,12.34
2022-12-25T01:52:26.396Z,12.58
2022-12-25T01:55:53.977Z,12.61
2022-12-25T01:59:21.820Z,12.52
2022-12-25T02:02:45.562Z,12.42
2022-12-25T02:06:17.009Z,12.57
2022-12-25T02:09:46.864Z,12.58
2022-12-25T02:13:09.260Z,12.58
2022-12-25T02:16:58.203Z,12.37
2022-12-25T02:20:59.064Z,12.57
2022-12-25T02:24:43.002Z,12.50
2022-12-25T02:28:36.625Z,12.39
2022-12-25T02:32:35.751Z,12.56
2022-12-25T02:36:03.779Z,12.47
2022-12-25T02:40:10.417Z,12.52
2022-12-25T02:44:03.910Z,12.41
2022-12-25T02:47:45.792Z,12.38
2022-12-25T02:51:32.385Z,12.25
2022-12-25T02:55:38.407Z,12.38
2022-12-25T02:59:20.899Z,12.35
2022-12-25T03:03:04.277Z,12.35
2022-12-25T03:06:43.359Z,12.23
2022-12-25T03:10:30.205Z,12.39
2022-12-25T03:14:17.785Z,12.43
2022-12-25T03:17:39.728Z,12.48
2022-12-25T03:21:20.346Z,12.58
2022-12-25T03:25:02.569Z,12.65
2022-12-25T03:28:24.614Z,12.61
2022-12-25T03:32:13.050Z,12.63
2022-12-25T03:36:05.702Z,12.56
2022-12-25T03:39:54.663Z,12.45
2022-12-25T03:44:02.475Z,12.63
2022-12-25T03:48:05.893Z,12.65
2022-12-25T03:51:55.626Z,12.72
2022-12-25T03:55:59.436Z,12.76
2022-12-25T03:59:50.412Z,12.58
2022-12-25T04:03:30.932Z,12.56
2022-12-25T04:07:11.518Z,12.57
2022-12-25T04:10:52.448Z,12.66
2022-12-25T04:14:39.103Z,12.67
2022-12-25T04:18:19.686Z,12.46
2022-12-25T04:22:00.117Z,12.73
2022-12-25T04:25:42.406Z,12.41
2022-12-25T04:29:26.451Z,12.75
2022-12-25T04:33:19.804Z,12.54
2022-12-25T04:36:52.490Z,12.56
2022-12-25T04:40:23.074Z,12.27
2022-12-25T04:43:44.914Z,12.40
2022-12-25T04:47:11.187Z,12.59
2022-12-25T04:50:38.648Z,12.44
2022-12-25T04:54:00.511Z,12.45
2022-12-25T04:57:24.389Z,12.49
2022-12-25T05:01:03.490Z,12.45
2022-12-25T05:04:52.430Z,12.31
2022-12-25T05:08:46.623Z,12.36
2022-12-25T05:12:10.034Z,12.36
2022-12-25T05:15:31.969Z,12.46
2022-12-25T05:18:54.018Z,12.41
2022-12-25T05:22:17.830Z,12.53
2022-12-25T05:25:40.739Z,12.40
2022-12-25T05:29:02.593Z,12.43
2022-12-25T05:32:29.576Z,12.57
2022-12-25T05:35:51.404Z,12.47
2022-12-25T05:39:13.247Z,12.63
2022-12-25T05:42:43.255Z,12.72
2022-12-25T05:46:10.687Z,12.78
2022-12-25T05:49:38.740Z,12.65
2022-12-25T05:53:07.738Z,12.63
2022-12-25T05:56:41.201Z,12.53
2022-12-25T06:00:05.418Z,12.66
2022-12-25T06:03:34.329Z,12.68
2022-12-25T06:06:56.319Z,12.73
2022-12-25T06:10:18.594Z,12.65
2022-12-25T06:13:43.859Z,12.71
2022-12-25T06:17:05.793Z,12.84
2022-12-25T06:20:30.166Z,12.68
2022-12-25T06:23:52.131Z,12.71
2022-12-25T06:27:15.074Z,12.59
2022-12-25T06:30:43.795Z,12.74
2022-12-25T06:34:05.706Z,12.60
2022-12-25T06:37:27.493Z,12.70
2022-12-25T06:40:50.420Z,12.71
2022-12-25T06:44:12.261Z,12.65
2022-12-25T06:47:38.151Z,12.52
2022-12-25T06:51:23.990Z,12.54
2022-12-25T06:54:53.667Z,12.60
2022-12-25T06:58:16.822Z,12.71
2022-12-25T07:01:49.028Z,12.82
2022-12-25T07:05:11.393Z,12.94
2022-12-25T07:08:33.426Z,12.92
2022-12-25T07:12:20.795Z,12.89
2022-12-25T07:15:43.713Z,12.68
2022-12-25T07:19:17.210Z,12.64
2022-12-25T07:22:48.258Z,12.81
2022-12-25T07:26:17.169Z,12.54
2022-12-25T07:29:44.163Z,12.50
2022-12-25T07:33:13.927Z,12.69
2022-12-25T07:36:36.865Z,12.63
2022-12-25T07:40:00.809Z,12.78
2022-12-25T07:43:23.850Z,12.78
2022-12-25T07:46:46.945Z,12.70
2022-12-25T07:50:09.272Z,12.68
2022-12-25T07:53:33.407Z,12.70
2022-12-25T07:57:02.164Z,12.65
2022-12-25T08:00:32.656Z,12.59
2022-12-25T08:04:01.291Z,12.62
2022-12-25T08:07:32.308Z,12.71
2022-12-25T08:10:55.447Z,12.53
2022-12-25T08:14:17.347Z,12.58
2022-12-25T08:17:47.318Z,12.65
2022-12-25T08:21:13.642Z,12.72
2022-12-25T08:24:45.441Z,12.87
2022-12-25T08:28:14.603Z,12.94
2022-12-25T08:31:42.369Z,13.02
2022-12-25T08:35:20.042Z,12.95
2022-12-25T08:38:43.467Z,12.88
2022-12-25T08:42:07.568Z,12.83
2022-12-25T08:45:42.120Z,12.80
2022-12-25T08:49:06.021Z,12.66
2022-12-25T08:52:30.049Z,13.00
2022-12-25T08:56:06.603Z,13.01
2022-12-25T08:59:28.412Z,13.20
2022-12-25T09:02:58.301Z,13.13
2022-12-25T09:06:21.341Z,12.96
2022-12-25T09:09:43.522Z,13.14
2022-12-25T09:13:05.650Z,13.41
2022-12-25T09:16:28.601Z,13.62
2022-12-25T09:19:50.461Z,13.62
2022-12-25T09:23:27.400Z,13.32
2022-12-25T09:26:52.385Z,13.48
2022-12-25T09:30:15.369Z,13.54
2022-12-25T09:33:43.178Z,13.65
2022-12-25T09:37:05.153Z,13.53
2022-12-25T09:40:33.412Z,13.70
2022-12-25T09:44:13.586Z,13.92
2022-12-25T09:47:41.771Z,13.78
2022-12-25T09:51:13.017Z,13.84
2022-12-25T09:54:54.453Z,13.52
2022-12-25T09:58:24.967Z,13.49
2022-12-25T10:02:34.739Z,13.46
2022-12-25T10:06:22.317Z,13.32
2022-12-25T10:10:20.442Z,13.13
2022-12-25T10:14:12.551Z,13.07
2022-12-25T10:17:52.616Z,13.21
2022-12-25T10:21:23.871Z,13.31
2022-12-25T10:24:54.732Z,13.51
2022-12-25T10:28:39.827Z,13.42
2022-12-25T10:32:02.023Z,13.36
2022-12-25T10:35:29.272Z,13.50
2022-12-25T10:38:51.635Z,13.76
2022-12-25T10:42:46.241Z,14.07
2022-12-25T10:46:20.776Z,14.27
2022-12-25T10:49:42.673Z,14.02
2022-12-25T10:53:09.247Z,14.02
2022-12-25T10:56:35.231Z,13.75
2022-12-25T10:59:57.678Z,13.74
2022-12-25T11:03:46.542Z,14.23
2022-12-25T11:07:24.132Z,14.30
2022-12-25T11:10:58.453Z,14.19
2022-12-25T11:14:37.563Z,14.11
2022-12-25T11:17:59.573Z,13.97
2022-12-25T11:21:37.337Z,14.18
2022-12-25T11:25:13.825Z,14.14
2022-12-25T11:28:40.192Z,14.14
2022-12-25T11:32:16.380Z,14.07
2022-12-25T11:35:50.519Z,14.23
2022-12-25T11:39:32.650Z,14.53
2022-12-25T11:43:36.563Z,14.94
2022-12-25T11:47:25.103Z,15.36
2022-12-25T11:51:00.607Z,15.26
2022-12-25T11:54:39.914Z,15.39
2022-12-25T11:58:14.604Z,15.41
2022-12-25T12:01:50.858Z,15.39
2022-12-25T12:05:29.126Z,15.30
2022-12-25T12:09:02.088Z,14.88
2022-12-25T12:13:10.093Z,14.85
2022-12-25T12:16:44.436Z,14.72
2022-12-25T12:20:33.217Z,14.97
2022-12-25T12:24:11.570Z,14.89
2022-12-25T12:27:40.430Z,14.84
2022-12-25T12:31:08.275Z,14.86
2022-12-25T12:34:49.974Z,14.64
2022-12-25T12:38:19.792Z,14.55
2022-12-25T12:41:49.673Z,14.69
2022-12-25T12:45:24.056Z,14.82
2022-12-25T12:48:51.132Z,14.87
2022-12-25T12:52:36.398Z,15.06
2022-12-25T12:56:13.382Z,15.28
2022-12-25T12:59:46.697Z,15.21
2022-12-25T13:03:54.744Z,15.39
2022-12-25T13:08:09.063Z,15.32
2022-12-25T13:11:40.022Z,15.11
2022-12-25T13:15:02.069Z,15.04
2022-12-25T13:18:39.438Z,15.27
2022-12-25T13:22:35.218Z,15.18
2022-12-25T13:26:01.679Z,15.36
2022-12-25T13:29:32.613Z,15.48
2022-12-25T13:33:05.375Z,15.61
2022-12-25T13:36:40.076Z,15.63
2022-12-25T13:40:08.048Z,15.76
2022-12-25T13:43:30.071Z,15.78
2022-12-25T13:46:56.219Z,15.95
2022-12-25T13:50:31.741Z,15.79
2022-12-25T13:54:06.866Z,15.76
2022-12-25T13:57:34.603Z,15.79
2022-12-25T14:01:03.679Z,15.83
2022-12-25T14:04:25.582Z,15.73
2022-12-25T14:07:55.773Z,15.59
2022-12-25T14:11:22.183Z,15.41
2022-12-25T14:14:52.752Z,15.35
2022-12-25T14:18:22.092Z,15.29
2022-12-25T14:21:49.228Z,14.93
2022-12-25T14:25:16.246Z,14.68
2022-12-25T14:28:52.947Z,14.41
2022-12-25T14:32:24.408Z,14.56
2022-12-25T14:35:48.375Z,14.53
2022-12-25T14:39:32.025Z,14.57
2022-12-25T14:43:02.845Z,14.65
2022-12-25T14:46:31.996Z,14.73
2022-12-25T14:49:54.600Z,14.85
2022-12-25T14:53:28.161Z,15.12
2022-12-25T14:56:53.836Z,15.08
2022-12-25T15:00:25.824Z,15.15
2022-12-25T15:03:49.332Z,15.13
2022-12-25T15:07:31.965Z,15.04
2022-12-25T15:11:00.478Z,14.99
2022-12-25T15:14:30.036Z,14.70
2022-12-25T15:17:54.888Z,14.64
2022-12-25T15:21:26.130Z,14.77
2022-12-25T15:24:50.137Z,14.65
2022-12-25T15:28:13.269Z,14.66
2022-12-25T15:31:38.929Z,14.60
2022-12-25T15:35:00.818Z,14.49
2022-12-25T15:38:22.700Z,14.64
2022-12-25T15:42:12.073Z,14.66
2022-12-25T15:45:35.190Z,14.56
2022-12-25T15:49:03.428Z,14.50
2022-12-25T15:52:27.343Z,14.66
2022-12-25T15:55:49.327Z,14.62
2022-12-25T15:59:17.677Z,14.83
2022-12-25T16:02:39.745Z,14.67
2022-12-25T16:06:18.534Z,14.67
2022-12-25T16:09:41.619Z,14.78
2022-12-25T16:13:13.540Z,14.66
2022-12-25T16:16:36.060Z,14.63
2022-12-25T16:20:08.582Z,14.69
2022-12-25T16:23:33.429Z,14.74
2022-12-25T16:26:56.293Z,14.81
2022-12-25T16:30:41.058Z,14.82
2022-12-25T16:34:13.284Z,14.73
2022-12-25T16:37:46.539Z,14.74
2022-12-25T16:41:13.991Z,14.75
2022-12-25T16:44:37.330Z,14.82
2022-12-25T16:48:01.143Z,14.81
2022-12-25T16:51:35.036Z,14.82
2022-12-25T16:55:06.024Z,14.87
2022-12-25T16:58:31.675Z,14.82
2022-12-25T17:02:02.230Z,14.83
2022-12-25T17:05:27.399Z,14.75
2022-12-25T17:09:05.690Z,14.84
2022-12-25T17:12:28.502Z,14.86
2022-12-25T17:15:59.261Z,14.88
2022-12-25T17:19:24.799Z,14.98
2022-12-25T17:22:49.927Z,14.96
2022-12-25T17:26:12.204Z,14.75
2022-12-25T17:29:48.633Z,14.82
2022-12-25T17:33:28.802Z,14.88
2022-12-25T17:36:50.646Z,14.88
2022-12-25T17:40:13.299Z,14.84
2022-12-25T17:43:42.000Z,14.86
2022-12-25T17:47:04.019Z,14.77
2022-12-25T17:50:45.101Z,14.80
2022-12-25T17:54:06.967Z,14.79
2022-12-25T17:57:28.867Z,14.69
2022-12-25T18:00:50.828Z,14.62
2022-12-25T18:04:13.809Z,14.73
2022-12-25T18:07:35.808Z,14.68
2022-12-25T18:11:18.837Z,14.83
2022-12-25T18:14:48.722Z,14.66
2022-12-25T18:18:34.602Z,14.68
2022-12-25T18:21:57.412Z,14.56
2022-12-25T18:25:23.862Z,14.59
2022-12-25T18:28:50.681Z,14.45
2022-12-25T18:32:14.480Z,14.45
2022-12-25T18:35:43.109Z,14.54
2022-12-25T18:39:06.251Z,14.55
2022-12-25T18:42:39.720Z,14.30
2022-12-25T18:46:06.288Z,14.40
2022-12-25T18:49:28.242Z,14.52
2022-12-25T18:52:52.252Z,14.48
2022-12-25T18:56:17.714Z,14.33
2022-12-25T18:59:41.775Z,14.38
2022-12-25T19:03:12.521Z,14.36
2022-12-25T19:06:40.467Z,14.39
2022-12-25T19:10:05.292Z,14.42
2022-12-25T19:13:32.285Z,14.37
2022-12-25T19:17:00.137Z,14.38
2022-12-25T19:20:22.001Z,14.35
2022-12-25T19:23:49.621Z,14.23
2022-12-25T19:27:12.602Z,14.28
2022-12-25T19:30:34.565Z,14.47
2022-12-25T19:34:06.544Z,14.60
2022-12-25T19:37:31.782Z,14.55
2022-12-25T19:41:02.522Z,14.71
2022-12-25T19:44:30.694Z,14.79
2022-12-25T19:48:00.482Z,14.76
2022-12-25T19:51:39.680Z,14.88
2022-12-25T19:55:01.575Z,14.80
2022-12-25T19:58:38.232Z,14.79
2022-12-25T20:02:01.003Z,14.70
2022-12-25T20:05:24.869Z,14.74
2022-12-25T20:08:59.874Z,14.56
2022-12-25T20:12:21.743Z,14.43
2022-12-25T20:15:46.374Z,14.40
2022-12-25T20:19:11.384Z,14.38
2022-12-25T20:22:38.212Z,14.38
2022-12-25T20:26:04.679Z,14.12
2022-12-25T20:29:34.771Z,14.07
2022-12-25T20:32:57.784Z,14.25
2022-12-25T20:36:32.778Z,14.31
2022-12-25T20:39:59.412Z,14.16
2022-12-25T20:43:25.480Z,14.10
2022-12-25T20:46:52.909Z,13.92
2022-12-25T20:50:23.070Z,13.98
2022-12-25T20:53:47.411Z,14.16
2022-12-25T20:57:16.103Z,14.14
2022-12-25T21:00:43.904Z,14.32
2022-12-25T21:04:05.943Z,14.29
2022-12-25T21:07:37.186Z,14.33
2022-12-25T21:11:01.163Z,14.29
2022-12-25T21:14:23.321Z,14.15
2022-12-25T21:17:45.281Z,14.16
2022-12-25T21:21:24.293Z,14.27
2022-12-25T21:24:53.457Z,14.15
2022-12-25T21:28:16.856Z,14.04
2022-12-25T21:31:58.114Z,14.24
2022-12-25T21:35:23.067Z,14.42
2022-12-25T21:38:45.880Z,14.35
2022-12-25T21:42:08.875Z,14.28
2022-12-25T21:45:31.293Z,14.24
2022-12-25T21:49:05.534Z,14.27
2022-12-25T21:52:27.539Z,14.27
2022-12-25T21:56:04.364Z,14.10
2022-12-25T21:59:29.284Z,14.17
2022-12-25T22:02:51.196Z,14.28
2022-12-25T22:06:31.779Z,14.48
2022-12-25T22:10:00.541Z,14.53
2022-12-25T22:13:58.419Z,14.44
2022-12-25T22:17:54.628Z,14.39
2022-12-25T22:21:21.089Z,14.53
2022-12-25T22:24:43.956Z,14.49
2022-12-25T22:28:05.882Z,14.28
2022-12-25T22:31:27.837Z,14.13
2022-12-25T22:34:49.695Z,14.21
2022-12-25T22:38:13.715Z,14.41
2022-12-25T22:41:40.794Z,14.24
2022-12-25T22:45:11.422Z,14.34
2022-12-25T22:48:39.399Z,14.24
2022-12-25T22:52:12.365Z,14.23
2022-12-25T22:55:34.200Z,14.22
2022-12-25T22:58:56.448Z,14.19
2022-12-25T23:02:18.534Z,14.09
2022-12-25T23:05:41.521Z,13.91
2022-12-25T23:09:22.151Z,14.38
2022-12-25T23:13:04.926Z,14.53
2022-12-25T23:16:27.256Z,14.23
2022-12-25T23:20:13.271Z,14.26
2022-12-25T23:23:58.812Z,14.31
2022-12-25T23:27:20.916Z,14.28
2022-12-25T23:30:42.713Z,14.38
2022-12-25T23:34:05.820Z,14.33
2022-12-25T23:37:29.901Z,14.29
2022-12-25T23:40:57.021Z,14.20
2022-12-25T23:44:36.198Z,14.20
2022-12-25T23:47:57.990Z,14.30
2022-12-25T23:51:19.800Z,14.15
2022-12-25T23:54:43.126Z,14.25
2022-12-25T23:58:17.113Z,14.07
